Time;durP1;ratioP1;P1;durP2;ratioP2;P2;SDS_P1;SDS_P2;PMS_P1;PMS_P2;Temp;Humidity;BMP_temperature;BMP_pressure;BME280_temperature;BME280_humidity;BME280_pressure;Samples;Min_cycle;Max_cycle;Signal;HPM_P1;HPM_P2
2022/03/24 00:01:18;;;;;;;25.13;19.73;;;;;;;;;;5009345;28;20130;-67
2022/03/24 00:03:43;;;;;;;25.20;19.55;;;;;;;;;;5032197;28;20021;-67
2022/03/24 00:06:09;;;;;;;23.80;19.08;;;;;;;;;;5030236;28;20491;-64
2022/03/24 00:08:34;;;;;;;26.73;20.05;;;;;;;;;;5090803;28;20035;-68
2022/03/24 00:11:00;;;;;;;24.33;19.40;;;;;;;;;;5093094;28;20111;-66
2022/03/24 00:13:25;;;;;;;24.35;19.38;;;;;;;;;;5103202;28;20030;-67
2022/03/24 00:15:51;;;;;;;26.67;20.15;;;;;;;;;;5095259;28;20392;-67
2022/03/24 00:18:16;;;;;;;27.05;19.83;;;;;;;;;;5109884;28;20412;-67
2022/03/24 00:20:41;;;;;;;25.30;20.02;;;;;;;;;;5106100;28;20460;-66
2022/03/24 00:23:07;;;;;;;26.08;19.92;;;;;;;;;;5107908;28;20026;-67
2022/03/24 00:25:32;;;;;;;24.48;19.15;;;;;;;;;;5102637;28;20023;-66
2022/03/24 00:27:57;;;;;;;28.90;20.45;;;;;;;;;;5106421;28;20455;-66
2022/03/24 00:30:22;;;;;;;23.40;18.85;;;;;;;;;;5111228;28;20388;-66
2022/03/24 00:32:47;;;;;;;27.05;19.00;;;;;;;;;;5104027;28;20530;-67
2022/03/24 00:35:14;;;;;;;27.77;20.83;;;;;;;;;;5105712;28;20020;-66
2022/03/24 00:37:39;;;;;;;25.15;20.83;;;;;;;;;;5105611;28;20043;-66
2022/03/24 00:40:07;;;;;;;25.80;19.85;;;;;;;;;;5105669;28;20479;-67
2022/03/24 00:42:32;;;;;;;26.80;21.20;;;;;;;;;;5100503;28;20035;-67
2022/03/24 00:44:57;;;;;;;26.08;19.77;;;;;;;;;;5102304;28;20288;-68
2022/03/24 00:47:23;;;;;;;26.33;19.98;;;;;;;;;;5098071;28;20080;-66
2022/03/24 00:49:48;;;;;;;26.25;21.38;;;;;;;;;;5102883;28;20501;-66
2022/03/24 00:52:13;;;;;;;26.02;20.63;;;;;;;;;;5096704;28;20552;-66
2022/03/24 00:54:39;;;;;;;27.27;20.75;;;;;;;;;;5109539;28;20023;-66
2022/03/24 00:57:04;;;;;;;28.75;21.30;;;;;;;;;;5109045;28;20043;-66
2022/03/24 00:59:29;;;;;;;28.88;20.48;;;;;;;;;;5107251;28;20011;-66
2022/03/24 01:01:55;;;;;;;27.48;19.52;;;;;;;;;;5106883;28;20450;-66
2022/03/24 01:04:21;;;;;;;27.30;19.45;;;;;;;;;;5107459;28;20160;-66
2022/03/24 01:06:46;;;;;;;28.92;20.90;;;;;;;;;;5101232;28;20078;-66
2022/03/24 01:09:11;;;;;;;27.17;20.10;;;;;;;;;;5103050;28;20088;-65
2022/03/24 01:11:37;;;;;;;27.10;19.88;;;;;;;;;;5103015;28;20026;-67
2022/03/24 01:14:02;;;;;;;26.73;20.08;;;;;;;;;;5106905;28;20383;-66
2022/03/24 01:16:27;;;;;;;27.67;20.23;;;;;;;;;;5107297;28;20357;-67
2022/03/24 01:18:52;;;;;;;27.98;20.55;;;;;;;;;;5108644;28;20379;-67
2022/03/24 01:21:18;;;;;;;27.63;20.63;;;;;;;;;;5097655;28;20028;-67
2022/03/24 01:23:44;;;;;;;27.10;20.30;;;;;;;;;;5102063;28;20016;-66
2022/03/24 01:26:11;;;;;;;28.20;20.23;;;;;;;;;;5106266;28;20030;-67
2022/03/24 01:28:37;;;;;;;27.40;21.50;;;;;;;;;;5099957;28;20054;-67
2022/03/24 01:31:02;;;;;;;29.83;20.35;;;;;;;;;;5100576;28;20059;-66
2022/03/24 01:33:27;;;;;;;26.63;19.75;;;;;;;;;;5101104;28;20035;-67
2022/03/24 01:35:52;;;;;;;28.17;20.38;;;;;;;;;;5101540;28;20396;-67
2022/03/24 01:38:19;;;;;;;24.92;19.42;;;;;;;;;;5099267;28;20024;-67
2022/03/24 01:40:44;;;;;;;23.70;19.95;;;;;;;;;;5091712;28;20065;-67
2022/03/24 01:43:11;;;;;;;28.38;20.00;;;;;;;;;;5100305;28;20012;-66
2022/03/24 01:45:37;;;;;;;25.50;18.95;;;;;;;;;;5100229;28;20039;-65
2022/03/24 01:48:03;;;;;;;28.58;20.25;;;;;;;;;;5104633;28;20533;-65
2022/03/24 01:50:29;;;;;;;26.15;19.63;;;;;;;;;;5103714;28;20463;-66
2022/03/24 01:52:54;;;;;;;24.60;19.52;;;;;;;;;;5103088;28;20020;-66
2022/03/24 01:55:19;;;;;;;27.67;19.63;;;;;;;;;;5100063;28;20084;-67
2022/03/24 01:57:45;;;;;;;26.92;19.88;;;;;;;;;;5104161;28;20051;-66
2022/03/24 02:00:12;;;;;;;26.65;20.25;;;;;;;;;;5097851;28;20031;-65
2022/03/24 02:02:39;;;;;;;27.25;20.70;;;;;;;;;;5094845;28;20491;-66
2022/03/24 02:05:04;;;;;;;25.88;19.65;;;;;;;;;;5108011;28;20020;-66
2022/03/24 02:07:32;;;;;;;25.45;19.15;;;;;;;;;;5097384;28;20067;-66
2022/03/24 02:09:59;;;;;;;27.55;20.27;;;;;;;;;;5097957;28;20032;-67
2022/03/24 02:12:25;;;;;;;25.77;19.52;;;;;;;;;;5100606;28;20028;-66
2022/03/24 02:14:51;;;;;;;25.80;19.17;;;;;;;;;;5096361;28;20024;-67
2022/03/24 02:17:20;;;;;;;25.45;18.88;;;;;;;;;;5109748;28;20464;-68
2022/03/24 02:19:45;;;;;;;27.02;19.38;;;;;;;;;;5103808;28;20012;-66
2022/03/24 02:22:16;;;;;;;27.77;20.30;;;;;;;;;;5101202;28;20027;-66
2022/03/24 02:24:42;;;;;;;26.42;19.42;;;;;;;;;;5101719;28;20367;-66
2022/03/24 02:27:08;;;;;;;24.27;18.92;;;;;;;;;;5109488;28;20107;-66
2022/03/24 02:29:35;;;;;;;25.85;19.35;;;;;;;;;;5104501;28;20035;-66
2022/03/24 02:32:00;;;;;;;28.95;21.08;;;;;;;;;;5104469;28;20411;-66
2022/03/24 02:34:37;;;;;;;26.70;19.75;;;;;;;;;;5106189;28;20492;-66
2022/03/24 02:37:13;;;;;;;26.92;20.42;;;;;;;;;;5109097;28;20455;-66
2022/03/24 02:39:38;;;;;;;;;;;;;;;;;;5105288;28;20028;-67
2022/03/24 02:42:04;;;;;;;29.52;20.13;;;;;;;;;;5112228;28;20470;-67
2022/03/24 02:44:30;;;;;;;26.88;19.77;;;;;;;;;;5104630;28;20024;-67
2022/03/24 02:46:56;;;;;;;27.70;20.70;;;;;;;;;;5103568;28;20028;-65
2022/03/24 02:49:25;;;;;;;28.27;20.45;;;;;;;;;;5113114;28;20068;-66
2022/03/24 02:51:54;;;;;;;26.33;20.02;;;;;;;;;;5110114;28;20049;-64
2022/03/24 02:54:20;;;;;;;26.02;20.20;;;;;;;;;;5102025;28;20028;-66
2022/03/24 02:56:46;;;;;;;25.70;19.58;;;;;;;;;;5104357;28;20099;-66
2022/03/24 02:59:12;;;;;;;26.00;20.55;;;;;;;;;;5103885;28;20044;-66
2022/03/24 03:01:38;;;;;;;25.65;19.73;;;;;;;;;;5108264;28;20026;-66
2022/03/24 03:04:05;;;;;;;26.42;19.45;;;;;;;;;;5109049;28;20383;-67
2022/03/24 03:06:32;;;;;;;25.73;19.20;;;;;;;;;;5094673;28;20032;-67
2022/03/24 03:08:58;;;;;;;26.52;19.52;;;;;;;;;;5102447;28;20093;-67
2022/03/24 03:11:23;;;;;;;26.45;20.35;;;;;;;;;;5100010;28;20067;-67
2022/03/24 03:13:49;;;;;;;28.20;20.17;;;;;;;;;;5105802;28;20054;-65
2022/03/24 03:16:14;;;;;;;27.23;19.92;;;;;;;;;;5109071;28;20044;-66
2022/03/24 03:18:41;;;;;;;28.67;20.20;;;;;;;;;;5097144;28;20019;-67
2022/03/24 03:21:08;;;;;;;27.58;20.30;;;;;;;;;;5099345;28;20020;-67
2022/03/24 03:23:33;;;;;;;28.20;20.02;;;;;;;;;;5096630;28;20019;-66
2022/03/24 03:25:59;;;;;;;26.80;19.55;;;;;;;;;;5097942;28;20072;-68
2022/03/24 03:28:25;;;;;;;27.23;19.48;;;;;;;;;;5107651;28;20055;-66
2022/03/24 03:30:50;;;;;;;27.30;20.33;;;;;;;;;;5106851;28;20062;-63
2022/03/24 03:33:15;;;;;;;27.52;19.33;;;;;;;;;;5105485;28;20549;-66
2022/03/24 03:35:41;;;;;;;27.63;20.80;;;;;;;;;;5108510;28;20020;-66
2022/03/24 03:38:10;;;;;;;28.17;21.17;;;;;;;;;;5110369;28;20470;-67
2022/03/24 03:40:35;;;;;;;26.38;19.92;;;;;;;;;;5101791;28;20035;-66
2022/03/24 03:43:01;;;;;;;27.63;19.93;;;;;;;;;;5101427;28;20027;-66
2022/03/24 03:45:26;;;;;;;28.63;20.73;;;;;;;;;;5101474;28;20027;-66
2022/03/24 03:47:51;;;;;;;27.97;21.57;;;;;;;;;;5101893;28;20031;-65
2022/03/24 03:50:16;;;;;;;24.60;19.45;;;;;;;;;;5105537;28;20060;-66
2022/03/24 03:52:42;;;;;;;26.83;19.63;;;;;;;;;;5101252;28;20101;-65
2022/03/24 03:55:07;;;;;;;28.90;20.60;;;;;;;;;;5100631;28;20031;-67
2022/03/24 03:57:32;;;;;;;26.80;20.43;;;;;;;;;;5104830;28;20138;-65
2022/03/24 04:00:52;;;;;;;27.35;19.38;;;;;;;;;;5102831;28;20035;-66
2022/03/24 04:02:43;;;;;;;27.40;20.58;;;;;;;;;;5097551;28;20105;-66
2022/03/24 04:05:08;;;;;;;25.23;18.83;;;;;;;;;;5110532;28;20066;-67
2022/03/24 04:07:33;;;;;;;26.38;19.30;;;;;;;;;;5111564;28;20027;-67
2022/03/24 04:09:58;;;;;;;25.13;20.47;;;;;;;;;;5104784;28;20033;-67
2022/03/24 04:12:23;;;;;;;25.73;19.60;;;;;;;;;;5104466;28;20446;-66
2022/03/24 04:14:49;;;;;;;25.77;20.37;;;;;;;;;;5106133;28;20032;-67
2022/03/24 04:17:15;;;;;;;29.77;21.73;;;;;;;;;;5098216;28;20032;-66
2022/03/24 04:19:41;;;;;;;29.47;21.13;;;;;;;;;;5104922;28;20028;-67
2022/03/24 04:22:06;;;;;;;27.33;19.60;;;;;;;;;;5104036;28;20028;-66
2022/03/24 04:24:31;;;;;;;29.17;20.47;;;;;;;;;;5102105;28;20040;-66
2022/03/24 04:26:56;;;;;;;25.70;19.83;;;;;;;;;;5101009;28;20073;-66
2022/03/24 04:29:21;;;;;;;26.47;20.27;;;;;;;;;;5106816;28;20428;-63
2022/03/24 04:31:47;;;;;;;25.70;18.70;;;;;;;;;;5103453;28;20023;-66
2022/03/24 04:34:12;;;;;;;27.60;19.33;;;;;;;;;;5100091;28;20030;-65
2022/03/24 04:36:38;;;;;;;26.17;19.60;;;;;;;;;;5103363;28;20052;-67
2022/03/24 04:39:03;;;;;;;25.80;18.77;;;;;;;;;;5102550;28;20016;-65
2022/03/24 04:41:28;;;;;;;28.40;20.03;;;;;;;;;;5106213;28;20060;-66
2022/03/24 04:43:54;;;;;;;25.63;18.30;;;;;;;;;;5103831;28;20016;-65
2022/03/24 04:46:20;;;;;;;24.47;19.30;;;;;;;;;;5076459;28;20449;-67
2022/03/24 04:48:45;;;;;;;27.33;19.77;;;;;;;;;;5094113;28;20024;-67
2022/03/24 04:51:10;;;;;;;26.73;19.60;;;;;;;;;;5110355;28;20542;-66
2022/03/24 04:53:35;;;;;;;25.37;19.37;;;;;;;;;;5094083;28;20054;-66
2022/03/24 04:56:01;;;;;;;26.00;18.30;;;;;;;;;;5104513;28;20391;-67
2022/03/24 04:58:26;;;;;;;25.37;19.07;;;;;;;;;;5105650;28;20039;-67
2022/03/24 05:00:51;;;;;;;25.73;19.30;;;;;;;;;;5107525;28;20024;-66
2022/03/24 05:03:16;;;;;;;28.10;20.03;;;;;;;;;;5097934;28;20032;-67
2022/03/24 05:05:42;;;;;;;31.67;21.13;;;;;;;;;;5099109;28;20024;-67
2022/03/24 05:08:07;;;;;;;26.00;20.13;;;;;;;;;;5098580;28;20016;-67
2022/03/24 05:10:32;;;;;;;28.33;21.17;;;;;;;;;;5102675;28;20031;-66
2022/03/24 05:12:57;;;;;;;30.00;20.77;;;;;;;;;;5097501;28;20566;-66
2022/03/24 05:15:23;;;;;;;26.43;20.77;;;;;;;;;;5097857;28;20024;-68
2022/03/24 05:17:49;;;;;;;28.10;21.00;;;;;;;;;;5098407;28;20049;-66
2022/03/24 05:20:14;;;;;;;31.47;21.00;;;;;;;;;;5105584;28;20023;-66
2022/03/24 05:22:39;;;;;;;33.60;21.73;;;;;;;;;;5104896;28;20114;-67
2022/03/24 05:25:05;;;;;;;29.97;20.70;;;;;;;;;;5100388;28;20020;-65
2022/03/24 05:27:30;;;;;;;32.80;21.87;;;;;;;;;;5106859;28;20202;-65
2022/03/24 05:29:56;;;;;;;31.50;21.80;;;;;;;;;;5106159;28;20388;-67
2022/03/24 05:32:22;;;;;;;28.40;21.73;;;;;;;;;;5092487;28;20480;-67
2022/03/24 05:34:48;;;;;;;36.07;20.90;;;;;;;;;;5097877;28;20028;-68
2022/03/24 05:37:14;;;;;;;33.77;22.20;;;;;;;;;;5109143;28;20035;-67
2022/03/24 05:39:41;;;;;;;29.77;20.87;;;;;;;;;;5102089;28;20026;-64
2022/03/24 05:42:06;;;;;;;39.07;21.60;;;;;;;;;;5095254;28;20407;-67
2022/03/24 05:44:31;;;;;;;32.97;22.23;;;;;;;;;;5107263;28;20036;-64
2022/03/24 05:46:57;;;;;;;31.33;21.80;;;;;;;;;;5105450;28;20376;-66
2022/03/24 05:49:22;;;;;;;35.93;22.97;;;;;;;;;;5107865;28;20034;-66
2022/03/24 05:51:49;;;;;;;32.77;22.67;;;;;;;;;;5103238;28;20084;-65
2022/03/24 05:54:16;;;;;;;35.57;21.77;;;;;;;;;;5098383;28;20036;-66
2022/03/24 05:56:42;;;;;;;29.77;21.13;;;;;;;;;;5093480;28;20036;-66
2022/03/24 05:59:07;;;;;;;32.47;20.93;;;;;;;;;;5104673;28;20478;-68
2022/03/24 06:01:33;;;;;;;29.37;21.13;;;;;;;;;;5106846;28;20316;-67
2022/03/24 06:04:00;;;;;;;29.63;21.17;;;;;;;;;;5110580;28;20024;-68
2022/03/24 06:06:26;;;;;;;28.60;22.13;;;;;;;;;;5103940;28;20050;-65
2022/03/24 06:08:52;;;;;;;31.40;22.23;;;;;;;;;;5101926;28;20020;-67
2022/03/24 06:11:18;;;;;;;31.27;21.93;;;;;;;;;;5104035;28;20027;-66
2022/03/24 06:13:43;;;;;;;30.60;20.73;;;;;;;;;;5112369;28;20498;-65
2022/03/24 06:16:08;;;;;;;30.57;19.53;;;;;;;;;;5107986;28;20039;-67
2022/03/24 06:18:35;;;;;;;32.13;20.37;;;;;;;;;;5110000;28;20011;-68
2022/03/24 06:21:01;;;;;;;27.53;19.87;;;;;;;;;;5097139;28;20042;-67
2022/03/24 06:23:26;;;;;;;31.43;20.87;;;;;;;;;;5107899;28;20464;-67
2022/03/24 06:25:51;;;;;;;29.20;21.27;;;;;;;;;;5105909;28;20035;-66
2022/03/24 06:28:16;;;;;;;26.30;20.17;;;;;;;;;;5105314;28;20031;-67
2022/03/24 06:30:42;;;;;;;28.43;20.33;;;;;;;;;;5102499;28;20080;-65
2022/03/24 06:33:07;;;;;;;28.47;19.60;;;;;;;;;;5111165;28;20486;-67
2022/03/24 06:35:32;;;;;;;29.40;19.67;;;;;;;;;;5112764;28;20027;-65
2022/03/24 06:37:57;;;;;;;27.80;20.03;;;;;;;;;;5114171;28;20055;-66
2022/03/24 06:40:23;;;;;;;26.83;20.20;;;;;;;;;;5113761;28;20026;-67
2022/03/24 06:42:48;;;;;;;26.30;19.97;;;;;;;;;;5110810;28;20115;-67
2022/03/24 06:45:14;;;;;;;29.87;20.30;;;;;;;;;;5114464;28;20478;-67
2022/03/24 06:47:40;;;;;;;28.13;20.83;;;;;;;;;;5113633;28;20042;-66
2022/03/24 06:50:05;;;;;;;28.63;21.33;;;;;;;;;;5114750;28;20019;-67
2022/03/24 06:52:31;;;;;;;28.80;20.73;;;;;;;;;;5106694;28;20024;-67
2022/03/24 06:54:56;;;;;;;29.17;21.10;;;;;;;;;;5108614;28;20434;-67
2022/03/24 06:57:21;;;;;;;30.07;20.63;;;;;;;;;;5093550;28;20048;-65
2022/03/24 06:59:46;;;;;;;31.33;21.00;;;;;;;;;;5111029;28;20035;-66
2022/03/24 07:02:12;;;;;;;28.08;20.50;;;;;;;;;;5105502;28;20157;-66
2022/03/24 07:04:37;;;;;;;27.65;20.52;;;;;;;;;;5100818;28;20031;-66
2022/03/24 07:07:03;;;;;;;32.92;21.63;;;;;;;;;;5114053;28;20106;-67
2022/03/24 07:09:28;;;;;;;29.13;21.38;;;;;;;;;;5103182;28;20034;-67
2022/03/24 07:11:54;;;;;;;31.13;21.25;;;;;;;;;;5105396;28;20024;-67
2022/03/24 07:14:19;;;;;;;30.13;22.90;;;;;;;;;;5101755;28;20485;-67
2022/03/24 07:16:44;;;;;;;31.33;22.60;;;;;;;;;;5101426;28;20460;-67
2022/03/24 07:19:10;;;;;;;32.25;21.88;;;;;;;;;;5101636;28;20031;-69
2022/03/24 07:21:35;;;;;;;30.10;22.50;;;;;;;;;;5102848;28;20643;-66
2022/03/24 07:24:00;;;;;;;30.25;22.27;;;;;;;;;;5100389;28;20027;-67
2022/03/24 07:26:25;;;;;;;29.27;20.98;;;;;;;;;;5099967;27;20092;-64
2022/03/24 07:28:51;;;;;;;32.63;20.67;;;;;;;;;;5101244;28;20019;-66
2022/03/24 07:31:19;;;;;;;30.88;22.15;;;;;;;;;;5101386;28;20839;-67
2022/03/24 07:33:44;;;;;;;26.92;20.90;;;;;;;;;;5099657;28;20024;-65
2022/03/24 07:36:09;;;;;;;33.63;22.05;;;;;;;;;;5113432;28;20117;-65
2022/03/24 07:38:34;;;;;;;26.92;21.30;;;;;;;;;;5099961;28;20107;-65
2022/03/24 07:41:00;;;;;;;26.65;21.52;;;;;;;;;;5104988;28;20027;-67
2022/03/24 07:43:25;;;;;;;30.13;21.73;;;;;;;;;;5108257;28;20016;-66
2022/03/24 07:45:52;;;;;;;30.02;23.00;;;;;;;;;;5095354;28;20514;-66
2022/03/24 07:48:18;;;;;;;31.20;22.70;;;;;;;;;;5094615;28;20039;-66
2022/03/24 07:50:47;;;;;;;30.60;21.60;;;;;;;;;;5102130;28;20032;-68
2022/03/24 07:53:16;;;;;;;31.63;21.73;;;;;;;;;;5111468;28;20031;-67
2022/03/24 07:55:42;;;;;;;32.38;22.98;;;;;;;;;;5107107;28;20109;-65
2022/03/24 07:58:09;;;;;;;33.08;22.60;;;;;;;;;;5109111;28;20048;-67
2022/03/24 08:00:34;;;;;;;31.35;22.30;;;;;;;;;;5106632;28;20460;-67
2022/03/24 08:02:59;;;;;;;29.77;22.85;;;;;;;;;;5112038;28;20027;-67
2022/03/24 08:05:26;;;;;;;34.15;23.13;;;;;;;;;;5098637;28;20476;-67
2022/03/24 08:07:53;;;;;;;30.85;22.45;;;;;;;;;;5104973;28;20560;-67
2022/03/24 08:10:19;;;;;;;31.60;23.05;;;;;;;;;;5105807;28;20035;-67
2022/03/24 08:12:44;;;;;;;28.33;22.08;;;;;;;;;;5111656;28;20031;-68
2022/03/24 08:15:09;;;;;;;32.00;22.92;;;;;;;;;;5094601;28;20032;-67
2022/03/24 08:17:35;;;;;;;29.88;22.67;;;;;;;;;;5105990;28;20027;-61
2022/03/24 08:20:00;;;;;;;31.42;22.83;;;;;;;;;;5112290;28;20027;-69
2022/03/24 08:22:25;;;;;;;32.65;23.33;;;;;;;;;;5105070;28;20533;-66
2022/03/24 08:24:50;;;;;;;30.33;22.80;;;;;;;;;;5101703;28;20035;-65
2022/03/24 08:27:16;;;;;;;31.30;23.42;;;;;;;;;;5107094;28;20027;-64
2022/03/24 08:29:41;;;;;;;32.28;24.05;;;;;;;;;;5099718;28;20024;-63
2022/03/24 08:32:07;;;;;;;34.13;23.30;;;;;;;;;;5106460;28;20137;-61
2022/03/24 08:34:32;;;;;;;32.50;24.13;;;;;;;;;;5111931;28;20431;-61
2022/03/24 08:36:57;;;;;;;34.33;23.33;;;;;;;;;;5108733;28;20450;-60
2022/03/24 08:39:22;;;;;;;33.45;23.38;;;;;;;;;;5101003;28;20499;-61
2022/03/24 08:41:47;;;;;;;32.80;22.83;;;;;;;;;;5104406;28;20019;-68
2022/03/24 08:44:13;;;;;;;30.15;24.10;;;;;;;;;;5110012;28;20377;-67
2022/03/24 08:46:38;;;;;;;32.10;23.75;;;;;;;;;;5098224;28;20111;-67
2022/03/24 08:49:03;;;;;;;31.92;24.08;;;;;;;;;;5105656;28;20531;-66
2022/03/24 08:51:28;;;;;;;32.33;23.23;;;;;;;;;;5110854;28;20073;-65
2022/03/24 08:53:53;;;;;;;30.10;23.63;;;;;;;;;;5112516;28;20024;-64
2022/03/24 08:56:19;;;;;;;31.73;23.38;;;;;;;;;;5104543;28;20031;-65
2022/03/24 08:58:44;;;;;;;30.58;22.55;;;;;;;;;;5100455;28;20024;-67
2022/03/24 09:01:10;;;;;;;34.33;23.83;;;;;;;;;;5098397;28;20062;-64
2022/03/24 09:03:36;;;;;;;30.75;22.85;;;;;;;;;;5091855;28;20035;-66
2022/03/24 09:06:01;;;;;;;30.77;23.20;;;;;;;;;;5109722;28;20020;-66
2022/03/24 09:08:26;;;;;;;31.55;23.25;;;;;;;;;;5109655;28;20131;-66
2022/03/24 09:10:51;;;;;;;34.35;22.60;;;;;;;;;;5112074;28;20042;-65
2022/03/24 09:13:17;;;;;;;29.27;21.25;;;;;;;;;;5112062;28;20023;-66
2022/03/24 09:15:44;;;;;;;29.17;21.23;;;;;;;;;;5112696;28;20059;-65
2022/03/24 09:18:10;;;;;;;29.80;21.92;;;;;;;;;;5108408;28;20510;-66
2022/03/24 09:20:35;;;;;;;27.02;21.50;;;;;;;;;;5100516;28;20073;-67
2022/03/24 09:23:00;;;;;;;31.75;22.25;;;;;;;;;;5110792;28;20118;-62
2022/03/24 09:25:25;;;;;;;31.02;22.17;;;;;;;;;;5104100;28;20031;-65
2022/03/24 09:27:51;;;;;;;30.73;22.73;;;;;;;;;;5110397;28;20015;-64
2022/03/24 09:30:18;;;;;;;28.25;22.95;;;;;;;;;;5109355;28;20072;-66
2022/03/24 09:32:45;;;;;;;32.30;23.63;;;;;;;;;;5110779;28;20033;-66
2022/03/24 09:35:11;;;;;;;31.88;23.67;;;;;;;;;;5101626;28;20081;-64
2022/03/24 09:37:36;;;;;;;31.73;23.85;;;;;;;;;;5109631;28;20035;-66
2022/03/24 09:40:03;;;;;;;31.65;23.48;;;;;;;;;;5105115;28;20051;-66
2022/03/24 09:42:28;;;;;;;29.52;22.67;;;;;;;;;;5100670;28;20023;-66
2022/03/24 09:44:56;;;;;;;32.10;23.73;;;;;;;;;;5099872;28;20523;-66
2022/03/24 09:47:22;;;;;;;28.73;23.02;;;;;;;;;;5110026;28;20019;-65
2022/03/24 09:49:47;;;;;;;33.95;23.48;;;;;;;;;;5105005;28;20031;-67
2022/03/24 09:52:13;;;;;;;36.60;24.58;;;;;;;;;;5110009;28;20051;-66
2022/03/24 09:54:39;;;;;;;29.10;22.52;;;;;;;;;;5106225;28;20026;-67
2022/03/24 09:57:08;;;;;;;29.35;23.13;;;;;;;;;;5099748;28;20111;-69
2022/03/24 09:59:33;;;;;;;32.95;24.38;;;;;;;;;;5100091;28;20046;-67
2022/03/24 10:01:59;;;;;;;31.27;23.27;;;;;;;;;;5107757;28;20484;-69
2022/03/24 10:04:24;;;;;;;32.58;23.73;;;;;;;;;;5105582;28;20492;-67
2022/03/24 10:06:59;;;;;;;29.10;23.30;;;;;;;;;;5097608;28;20041;-64
2022/03/24 10:09:34;;;;;;;31.45;24.45;;;;;;;;;;5107255;28;20379;-68
2022/03/24 10:11:59;;;;;;;33.83;25.42;;;;;;;;;;5094794;28;20040;-68
2022/03/24 10:14:24;;;;;;;33.85;25.75;;;;;;;;;;5101471;28;20035;-66
2022/03/24 10:16:50;;;;;;;30.30;24.27;;;;;;;;;;5107029;28;20051;-69
2022/03/24 10:19:16;;;;;;;31.90;24.58;;;;;;;;;;5111479;28;20065;-69
2022/03/24 10:21:43;;;;;;;30.60;23.88;;;;;;;;;;5107907;28;20111;-69
2022/03/24 10:24:19;;;;;;;29.98;23.20;;;;;;;;;;5104910;28;20027;-68
2022/03/24 10:27:00;;;;;;;31.48;24.00;;;;;;;;;;5097153;28;20016;-67
2022/03/24 10:29:26;;;;;;;31.60;23.33;;;;;;;;;;5108321;28;20015;-68
2022/03/24 10:31:52;;;;;;;30.52;23.50;;;;;;;;;;5097863;28;20425;-68
2022/03/24 10:34:26;;;;;;;28.13;23.23;;;;;;;;;;5107206;28;20074;-68
2022/03/24 10:36:51;;;;;;;27.30;24.10;;;;;;;;;;5105735;28;20065;-68
2022/03/24 10:39:23;;;;;;;29.05;25.63;;;;;;;;;;5111595;28;20023;-67
2022/03/24 10:41:48;;;;;;;28.52;24.42;;;;;;;;;;5111106;28;20016;-68
2022/03/24 10:44:13;;;;;;;27.35;24.08;;;;;;;;;;5105949;28;20117;-68
2022/03/24 10:46:41;;;;;;;26.73;23.70;;;;;;;;;;5094303;28;20032;-70
2022/03/24 10:49:17;;;;;;;27.85;23.50;;;;;;;;;;5109659;28;20083;-68
2022/03/24 10:51:43;;;;;;;30.35;23.60;;;;;;;;;;5110751;28;20487;-66
2022/03/24 10:54:15;;;;;;;28.08;23.50;;;;;;;;;;5107337;28;20462;-66
2022/03/24 10:56:45;;;;;;;26.40;23.55;;;;;;;;;;5104799;28;20063;-66
2022/03/24 10:59:10;;;;;;;26.50;23.30;;;;;;;;;;5114430;28;20015;-67
2022/03/24 11:01:36;;;;;;;25.70;22.80;;;;;;;;;;5110591;28;20023;-68
2022/03/24 11:04:01;;;;;;;29.13;21.85;;;;;;;;;;5113821;28;20016;-66
2022/03/24 11:06:30;;;;;;;25.27;21.63;;;;;;;;;;5111719;28;20425;-67
2022/03/24 11:08:57;;;;;;;25.02;21.45;;;;;;;;;;5112595;28;20043;-67
2022/03/24 11:11:23;;;;;;;26.85;21.75;;;;;;;;;;5096209;28;20031;-67
2022/03/24 11:13:52;;;;;;;26.08;22.48;;;;;;;;;;5103700;28;20042;-67
2022/03/24 11:16:21;;;;;;;24.55;21.95;;;;;;;;;;5106521;28;20487;-66
2022/03/24 11:18:47;;;;;;;22.77;20.40;;;;;;;;;;5107460;28;20038;-67
2022/03/24 11:21:13;;;;;;;22.98;20.58;;;;;;;;;;5107785;28;20406;-67
2022/03/24 11:23:42;;;;;;;27.92;21.67;;;;;;;;;;5113557;28;20031;-63
2022/03/24 11:26:08;;;;;;;24.15;21.73;;;;;;;;;;5107770;28;20020;-68
2022/03/24 11:28:36;;;;;;;23.40;20.70;;;;;;;;;;5112779;28;20058;-63
2022/03/24 11:31:04;;;;;;;22.63;20.27;;;;;;;;;;5108699;28;20135;-68
2022/03/24 11:33:30;;;;;;;23.08;20.60;;;;;;;;;;5111232;28;20092;-64
2022/03/24 11:35:56;;;;;;;22.55;20.38;;;;;;;;;;5111851;28;20019;-66
2022/03/24 11:38:21;;;;;;;23.67;21.17;;;;;;;;;;5098437;28;20039;-67
2022/03/24 11:40:46;;;;;;;23.08;20.75;;;;;;;;;;5101291;28;20024;-67
2022/03/24 11:43:14;;;;;;;22.65;20.40;;;;;;;;;;5111520;28;20031;-67
2022/03/24 11:45:49;;;;;;;23.35;21.02;;;;;;;;;;5111852;28;20488;-63
2022/03/24 11:48:14;;;;;;;24.48;21.98;;;;;;;;;;5105877;28;20023;-66
2022/03/24 11:50:45;;;;;;;24.00;21.58;;;;;;;;;;5093261;28;20431;-70
2022/03/24 11:53:11;;;;;;;23.15;20.92;;;;;;;;;;5095246;28;20528;-66
2022/03/24 11:55:37;;;;;;;23.10;20.80;;;;;;;;;;5104934;28;20028;-62
2022/03/24 11:58:03;;;;;;;22.40;20.23;;;;;;;;;;5112777;28;20040;-65
2022/03/24 12:00:31;;;;;;;22.73;20.58;;;;;;;;;;5105589;28;20394;-65
2022/03/24 12:03:00;;;;;;;22.50;20.52;;;;;;;;;;5104962;28;20047;-63
2022/03/24 12:05:44;;;;;;;21.98;19.98;;;;;;;;;;5101932;28;20035;-65
2022/03/24 12:08:09;;;;;;;22.52;20.52;;;;;;;;;;5096633;28;20028;-63
2022/03/24 12:10:35;;;;;;;22.30;20.40;;;;;;;;;;5107813;28;20582;-62
2022/03/24 12:13:21;;;;;;;22.30;20.30;;;;;;;;;;5097527;28;20362;-67
2022/03/24 12:16:05;;;;;;;21.75;19.95;;;;;;;;;;5097352;28;20065;-67
2022/03/24 12:18:40;;;;;;;21.88;19.98;;;;;;;;;;5098103;28;20015;-64
2022/03/24 12:21:05;;;;;;;21.20;19.50;;;;;;;;;;5113428;28;20455;-67
2022/03/24 12:23:49;;;;;;;22.45;20.55;;;;;;;;;;5111696;28;20039;-67
2022/03/24 12:26:16;;;;;;;22.35;20.25;;;;;;;;;;5106406;28;20019;-66
2022/03/24 12:28:43;;;;;;;22.88;20.80;;;;;;;;;;5109600;28;20407;-65
2022/03/24 12:31:08;;;;;;;22.65;20.75;;;;;;;;;;5113133;28;20529;-65
2022/03/24 12:33:33;;;;;;;22.70;20.17;;;;;;;;;;5111159;28;20020;-65
2022/03/24 12:35:59;;;;;;;22.33;20.53;;;;;;;;;;5104672;28;20032;-66
2022/03/24 12:38:28;;;;;;;21.92;20.13;;;;;;;;;;5097288;28;20432;-66
2022/03/24 12:41:21;;;;;;;22.83;20.95;;;;;;;;;;5091884;28;20360;-65
2022/03/24 12:43:57;;;;;;;22.45;20.65;;;;;;;;;;5091394;28;20042;-65
2022/03/24 12:46:25;;;;;;;22.27;20.30;;;;;;;;;;5094427;28;20024;-61
2022/03/24 12:48:50;;;;;;;22.45;20.55;;;;;;;;;;5095553;28;20020;-67
2022/03/24 12:51:21;;;;;;;22.20;20.40;;;;;;;;;;5106583;28;20388;-63
2022/03/24 12:53:54;;;;;;;21.88;19.98;;;;;;;;;;5098249;28;20502;-63
2022/03/24 12:56:21;;;;;;;21.38;19.67;;;;;;;;;;5099442;28;20107;-63
2022/03/24 12:58:56;;;;;;;22.65;20.65;;;;;;;;;;5107454;28;20405;-65
2022/03/24 13:01:22;;;;;;;21.23;19.52;;;;;;;;;;5101579;28;20062;-64
2022/03/24 13:03:54;;;;;;;21.65;19.92;;;;;;;;;;5109821;28;20087;-64
2022/03/24 13:06:20;;;;;;;21.95;20.15;;;;;;;;;;5099442;28;20038;-65
2022/03/24 13:09:05;;;;;;;22.55;20.42;;;;;;;;;;5102518;28;20376;-64
2022/03/24 13:11:46;;;;;;;21.90;19.95;;;;;;;;;;5091809;28;20043;-62
2022/03/24 13:14:12;;;;;;;21.55;19.58;;;;;;;;;;5106671;28;20023;-64
2022/03/24 13:16:37;;;;;;;21.90;19.83;;;;;;;;;;5112221;28;20103;-66
2022/03/24 13:19:02;;;;;;;22.03;20.03;;;;;;;;;;5110446;28;20273;-65
2022/03/24 13:21:27;;;;;;;21.13;19.30;;;;;;;;;;5106369;28;20019;-66
2022/03/24 13:23:53;;;;;;;21.57;19.77;;;;;;;;;;5102162;28;20378;-66
2022/03/24 13:26:19;;;;;;;21.02;19.27;;;;;;;;;;5106555;28;20117;-65
2022/03/24 13:28:45;;;;;;;22.95;20.85;;;;;;;;;;5110960;28;20369;-66
2022/03/24 13:31:10;;;;;;;21.92;20.13;;;;;;;;;;5098046;28;20058;-64
2022/03/24 13:33:35;;;;;;;21.77;20.03;;;;;;;;;;5091278;28;20032;-65
2022/03/24 13:36:01;;;;;;;21.90;19.97;;;;;;;;;;5106305;28;20289;-65
2022/03/24 13:38:27;;;;;;;21.67;19.83;;;;;;;;;;5099195;28;20274;-67
2022/03/24 13:40:54;;;;;;;21.23;19.42;;;;;;;;;;5097574;28;20097;-66
2022/03/24 13:43:21;;;;;;;21.40;19.42;;;;;;;;;;5104329;28;20052;-67
2022/03/24 13:45:48;;;;;;;21.80;19.67;;;;;;;;;;5109667;28;20177;-67
2022/03/24 13:48:15;;;;;;;19.35;17.80;;;;;;;;;;5111291;28;20114;-66
2022/03/24 13:50:41;;;;;;;19.30;17.75;;;;;;;;;;5103536;28;20028;-66
2022/03/24 13:53:12;;;;;;;19.50;17.88;;;;;;;;;;5112041;28;20020;-67
2022/03/24 13:55:38;;;;;;;21.08;19.33;;;;;;;;;;5107640;28;20214;-67
2022/03/24 13:58:10;;;;;;;21.77;19.70;;;;;;;;;;5107806;28;20153;-66
2022/03/24 14:00:44;;;;;;;21.88;19.98;;;;;;;;;;5103304;28;20261;-66
2022/03/24 14:03:13;;;;;;;21.35;19.48;;;;;;;;;;5104852;28;20377;-67
2022/03/24 14:05:51;;;;;;;21.50;19.65;;;;;;;;;;5105491;28;20047;-66
2022/03/24 14:08:17;;;;;;;20.85;18.85;;;;;;;;;;5109744;28;20077;-66
2022/03/24 14:10:50;;;;;;;20.83;18.77;;;;;;;;;;5101191;28;20028;-66
2022/03/24 14:13:19;;;;;;;21.27;19.27;;;;;;;;;;5107742;28;20020;-67
2022/03/24 14:15:45;;;;;;;22.52;20.15;;;;;;;;;;5110533;28;20030;-63